Terminal Aerodrome Forecast
Issued by NWS

Home | Current Version | Previous Version | Text Only | Print | Product List | Glossary On
Versions: 1 2 3 4 5 6 7 8 9 10 11 12 13 14
000
FTAK31 PANC 271743
TAFAEN
TAF
PAEN 271743Z 2718/2818 02012KT P6SM -SHRA SCT040 OVC080
     FM280100 02010KT P6SM -SHRA SCT020 BKN040 OVC080
     FM281200 VRB06KT P6SM VCSH BKN050 OVC080=

USA.gov is the U.S. government's official web portal to all federal, state and local government web resources and services.